Time;durP1;ratioP1;P1;durP2;ratioP2;P2;SDS_P1;SDS_P2;PMS_P1;PMS_P2;Temp;Humidity;BMP_temperature;BMP_pressure;BME280_temperature;BME280_humidity;BME280_pressure;Samples;Min_cycle;Max_cycle;Signal;HPM_P1;HPM_P2
2021/12/09 00:01:25;;;;;;;;;;;;;;;2.94;82.49;99635.84;4960550;28;19934;-78
2021/12/09 00:03:51;;;;;;;;;;;;;;;2.92;82.36;99627.31;4958257;28;20317;-79
2021/12/09 00:06:21;;;;;;;;;;;;;;;2.89;82.56;99630.13;4940853;28;20085;-80
2021/12/09 00:08:47;;;;;;;;;;;;;;;2.88;82.38;99631.09;4943638;28;20208;-79
2021/12/09 00:11:12;;;;;;;;;;;;;;;2.93;82.23;99636.78;4946099;28;19908;-79
2021/12/09 00:13:37;;;;;;;;;;;;;;;2.92;82.18;99637.75;4953944;28;19914;-78
2021/12/09 00:16:02;;;;;;;;;;;;;;;2.79;82.09;99635.19;4958997;28;19908;-78
2021/12/09 00:18:28;;;;;;;;;;;;;;;2.89;82.12;99627.50;4953956;28;20005;-78
2021/12/09 00:20:53;;;;;;;;;;;;;;;2.81;82.57;99629.88;4937333;28;20314;-78
2021/12/09 00:23:18;;;;;;;;;;;;;;;2.77;82.66;99623.22;4960586;28;20636;-78
2021/12/09 00:25:43;;;;;;;;;;;;;;;2.79;82.86;99626.53;4955877;28;20309;-78
2021/12/09 00:28:09;;;;;;;;;;;;;;;2.80;82.77;99628.22;4974415;28;20295;-78
2021/12/09 00:30:35;;;;;;;;;;;;;;;2.78;82.60;99633.56;4931381;28;20021;-78
2021/12/09 00:33:00;;;;;;;;;;;;;;;2.71;82.79;99630.56;4938235;28;19937;-79
2021/12/09 00:35:30;;;;;;;;;;;;;;;2.69;83.26;99629.84;4942449;28;19988;-78
2021/12/09 00:38:04;;;;;;;;;;;;;;;2.61;83.45;99626.97;4939955;28;20625;-78
2021/12/09 00:40:29;;;;;;;;;;;;;;;2.64;83.47;99628.53;4950684;28;19913;-78
2021/12/09 00:42:55;;;;;;;;;;;;;;;2.64;83.36;99631.97;4959661;28;20168;-77
2021/12/09 00:45:21;;;;;;;;;;;;;;;2.61;83.67;99629.59;4970968;27;20381;-76
2021/12/09 00:47:46;;;;;;;;;;;;;;;2.65;83.68;99636.25;4978848;27;20685;-78
2021/12/09 00:50:12;;;;;;;;;;;;;;;2.63;83.46;99627.69;4972992;27;19951;-78
2021/12/09 00:52:37;;;;;;;;;;;;;;;2.62;83.74;99626.00;4980536;27;19952;-77
2021/12/09 00:55:02;;;;;;;;;;;;;;;2.66;83.63;99627.44;5000685;27;19927;-80
2021/12/09 00:57:28;;;;;;;;;;;;;;;2.66;83.62;99627.44;4984218;27;19911;-80
2021/12/09 00:59:53;;;;;;;;;;;;;;;2.65;83.45;99641.47;4963506;28;20378;-79
2021/12/09 01:02:18;;;;;;;;;;;;;;;2.65;83.50;99632.78;4975032;28;20235;-79
2021/12/09 01:04:44;;;;;;;;;;;;;;;2.67;83.39;99630.91;4965088;28;20204;-80
2021/12/09 01:07:09;;;;;;;;;;;;;;;2.64;83.40;99626.75;4957764;28;20190;-78
2021/12/09 01:09:34;;;;;;;;;;;;;;;2.63;83.36;99640.72;4978184;28;20938;-78
2021/12/09 01:11:59;;;;;;;;;;;;;;;2.64;83.41;99645.03;4958378;28;20185;-78
2021/12/09 01:14:25;;;;;;;;;;;;;;;2.68;83.37;99651.69;4945524;28;20016;-80
2021/12/09 01:16:50;;;;;;;;;;;;;;;2.64;83.21;99650.25;4962499;28;20010;-79
2021/12/09 01:19:15;;;;;;;;;;;;;;;2.66;83.01;99652.75;4940553;28;19944;-78
2021/12/09 01:21:40;;;;;;;;;;;;;;;2.67;83.19;99650.00;4983344;28;20324;-77
2021/12/09 01:24:05;;;;;;;;;;;;;;;2.65;83.10;99657.16;4975611;28;19938;-78
2021/12/09 01:26:31;;;;;;;;;;;;;;;2.63;82.89;99655.59;4948067;28;19904;-78
2021/12/09 01:29:01;;;;;;;;;;;;;;;2.56;83.36;99661.25;4930247;28;19914;-78
2021/12/09 01:31:34;;;;;;;;;;;;;;;2.63;83.13;99658.19;4933708;28;19908;-78
2021/12/09 01:34:02;;;;;;;;;;;;;;;2.61;83.65;99671.38;4934815;28;20305;-78
2021/12/09 01:36:28;;;;;;;;;;;;;;;2.68;83.16;99676.94;4943073;28;19904;-79
2021/12/09 01:38:53;;;;;;;;;;;;;;;2.66;83.03;99668.41;4938270;28;19968;-78
2021/12/09 01:41:18;;;;;;;;;;;;;;;2.70;83.08;99670.69;4921885;28;20494;-78
2021/12/09 01:43:43;;;;;;;;;;;;;;;2.71;83.06;99666.31;4931405;28;19964;-78
2021/12/09 01:46:09;;;;;;;;;;;;;;;2.69;82.91;99662.97;4932472;28;20187;-78
2021/12/09 01:48:35;;;;;;;;;;;;;;;2.61;82.73;99668.75;4935251;28;20488;-78
2021/12/09 01:51:00;;;;;;;;;;;;;;;2.61;82.94;99678.34;4950422;28;20238;-78
2021/12/09 01:53:26;;;;;;;;;;;;;;;2.60;82.53;99689.75;4937712;28;19942;-78
2021/12/09 01:55:51;;;;;;;;;;;;;;;2.63;82.57;99687.75;4935513;28;20029;-77
2021/12/09 01:58:16;;;;;;;;;;;;;;;2.62;82.00;99687.88;4952170;28;19908;-78
2021/12/09 02:00:41;;;;;;;;;;;;;;;2.54;82.37;99688.44;4941210;28;20204;-78
2021/12/09 02:03:06;;;;;;;;;;;;;;;2.52;82.05;99688.50;4958395;28;20231;-78
2021/12/09 02:05:32;;;;;;;;;;;;;;;2.55;82.36;99688.31;4939355;28;19978;-78
2021/12/09 02:07:57;;;;;;;;;;;;;;;2.51;82.26;99683.41;4923630;28;20768;-78
2021/12/09 02:10:23;;;;;;;;;;;;;;;2.54;82.71;99680.59;4959346;28;19904;-79
2021/12/09 02:12:48;;;;;;;;;;;;;;;2.53;82.91;99684.97;4946575;27;19910;-78
2021/12/09 02:15:13;;;;;;;;;;;;;;;2.51;82.79;99681.66;4949574;28;20279;-78
2021/12/09 02:17:39;;;;;;;;;;;;;;;2.52;83.07;99677.25;4966196;28;20880;-77
2021/12/09 02:20:04;;;;;;;;;;;;;;;2.47;83.23;99679.34;4960620;28;19908;-78
2021/12/09 02:22:30;;;;;;;;;;;;;;;2.48;83.36;99670.59;4960784;28;20121;-78
2021/12/09 02:24:56;;;;;;;;;;;;;;;2.48;83.48;99678.41;4960295;28;19904;-78
2021/12/09 02:27:22;;;;;;;;;;;;;;;2.55;83.30;99677.03;4947861;28;19908;-77
2021/12/09 02:29:47;;;;;;;;;;;;;;;2.50;83.07;99674.75;4967920;28;20236;-78
2021/12/09 02:32:13;;;;;;;;;;;;;;;2.57;82.90;99669.94;4971593;28;20693;-78
2021/12/09 02:34:38;;;;;;;;;;;;;;;2.50;83.00;99666.91;4957195;28;20599;-78
2021/12/09 02:37:04;;;;;;;;;;;;;;;2.57;82.86;99672.53;4950168;28;20696;-78
2021/12/09 02:39:29;;;;;;;;;;;;;;;2.56;82.50;99669.06;4965586;28;19907;-79
2021/12/09 02:41:55;;;;;;;;;;;;;;;2.46;82.53;99662.03;4967258;28;19912;-79
2021/12/09 02:44:20;;;;;;;;;;;;;;;2.43;82.49;99667.50;4968289;28;20316;-78
2021/12/09 02:46:47;;;;;;;;;;;;;;;2.40;82.51;99669.38;4983100;27;20025;-78
2021/12/09 02:49:13;;;;;;;;;;;;;;;2.34;82.39;99669.81;4980005;28;20302;-79
2021/12/09 02:51:38;;;;;;;;;;;;;;;2.20;82.88;99662.13;4983608;28;20620;-78
2021/12/09 02:54:04;;;;;;;;;;;;;;;2.10;83.15;99674.16;4979807;28;19920;-78
2021/12/09 02:56:29;;;;;;;;;;;;;;;2.06;83.18;99671.78;4975079;28;20302;-77
2021/12/09 02:58:55;;;;;;;;;;;;;;;1.95;83.26;99663.88;4949641;28;19961;-78
2021/12/09 03:01:21;;;;;;;;;;;;;;;1.93;83.44;99665.75;4965451;28;20030;-78
2021/12/09 03:03:52;;;;;;;;;;;;;;;1.82;83.34;99665.66;4981009;28;19904;-78
2021/12/09 03:06:18;;;;;;;;;;;;;;;1.73;83.57;99658.50;4935579;28;20321;-79
2021/12/09 03:08:43;;;;;;;;;;;;;;;1.71;83.37;99664.66;4947398;28;19915;-78
2021/12/09 03:11:13;;;;;;;;;;;;;;;1.65;84.07;99665.09;4945882;28;20009;-78
2021/12/09 03:13:38;;;;;;;;;;;;;;;1.61;83.80;99655.81;4957880;28;19941;-78
2021/12/09 03:16:04;;;;;;;;;;;;;;;1.52;84.17;99661.66;4962714;28;20005;-79
2021/12/09 03:18:29;;;;;;;;;;;;;;;1.44;84.28;99661.34;4945588;28;20098;-77
2021/12/09 03:20:54;;;;;;;;;;;;;;;1.46;84.18;99662.91;4942751;28;20224;-77
2021/12/09 03:23:19;;;;;;;;;;;;;;;1.44;84.13;99658.72;4944175;28;20013;-78
2021/12/09 03:25:45;;;;;;;;;;;;;;;1.36;83.60;99667.91;4945945;28;20334;-79
2021/12/09 03:28:10;;;;;;;;;;;;;;;1.32;83.92;99666.44;4952639;28;19915;-78
2021/12/09 03:30:35;;;;;;;;;;;;;;;1.26;83.90;99669.47;4941686;28;19908;-78
2021/12/09 03:33:01;;;;;;;;;;;;;;;1.25;83.73;99664.38;4927286;28;19908;-78
2021/12/09 03:35:26;;;;;;;;;;;;;;;1.29;84.33;99669.25;4936759;28;20150;-78
2021/12/09 03:37:51;;;;;;;;;;;;;;;1.24;83.94;99668.75;4952353;28;20467;-78
2021/12/09 03:40:17;;;;;;;;;;;;;;;1.20;83.89;99673.34;4978826;27;20312;-78
2021/12/09 03:42:43;;;;;;;;;;;;;;;1.13;83.93;99671.22;4980456;28;20251;-78
2021/12/09 03:45:08;;;;;;;;;;;;;;;1.13;84.16;99674.69;4980824;27;20732;-79
2021/12/09 03:47:34;;;;;;;;;;;;;;;1.08;84.06;99668.13;4975468;28;19899;-79
2021/12/09 03:49:59;;;;;;;;;;;;;;;1.05;84.02;99670.94;4998367;28;19997;-78
2021/12/09 03:52:26;;;;;;;;;;;;;;;0.98;83.70;99670.50;4980763;28;19907;-78
2021/12/09 03:54:51;;;;;;;;;;;;;;;0.96;84.32;99665.38;4983468;28;20269;-78
2021/12/09 03:57:16;;;;;;;;;;;;;;;0.95;84.53;99670.72;4965779;28;20025;-79
2021/12/09 03:59:42;;;;;;;;;;;;;;;0.92;84.49;99670.91;4964473;28;20809;-79
2021/12/09 04:02:07;;;;;;;;;;;;;;;1.02;84.52;99664.97;4957796;28;19908;-79
2021/12/09 04:04:32;;;;;;;;;;;;;;;1.06;83.98;99659.56;4942382;28;19912;-79
2021/12/09 04:06:58;;;;;;;;;;;;;;;1.03;83.63;99658.84;4941439;28;19996;-79
2021/12/09 04:09:23;;;;;;;;;;;;;;;0.97;84.09;99655.78;4975493;28;20373;-78
2021/12/09 04:11:51;;;;;;;;;;;;;;;0.99;84.32;99666.97;4974336;28;20236;-78
2021/12/09 04:14:17;;;;;;;;;;;;;;;0.99;84.32;99675.59;4976290;28;20278;-79
2021/12/09 04:16:42;;;;;;;;;;;;;;;1.00;83.96;99685.09;4978437;27;19924;-78
2021/12/09 04:19:07;;;;;;;;;;;;;;;0.93;83.69;99683.84;4979117;27;20100;-78
2021/12/09 04:21:33;;;;;;;;;;;;;;;0.88;83.53;99678.09;4991348;27;20428;-79
2021/12/09 04:23:58;;;;;;;;;;;;;;;0.81;84.08;99682.84;4999403;27;19907;-78
2021/12/09 04:26:23;;;;;;;;;;;;;;;0.74;84.42;99686.78;4987067;27;20034;-79
2021/12/09 04:28:49;;;;;;;;;;;;;;;0.83;84.31;99686.22;4958071;28;20204;-79
2021/12/09 04:31:14;;;;;;;;;;;;;;;0.74;83.73;99680.75;4975403;28;19908;-79
2021/12/09 04:33:41;;;;;;;;;;;;;;;0.66;83.61;99689.91;4964452;28;20606;-78
2021/12/09 04:36:07;;;;;;;;;;;;;;;0.59;83.89;99685.19;4975004;28;20271;-78
2021/12/09 04:38:32;;;;;;;;;;;;;;;0.62;83.65;99684.97;4958283;28;19904;-78
2021/12/09 04:40:57;;;;;;;;;;;;;;;0.57;83.87;99679.25;4975209;28;20706;-78
2021/12/09 04:43:23;;;;;;;;;;;;;;;0.62;83.61;99685.84;4962508;27;19912;-78
2021/12/09 04:45:48;;;;;;;;;;;;;;;0.64;83.96;99693.53;4955887;28;19980;-78
2021/12/09 04:48:13;;;;;;;;;;;;;;;0.59;83.73;99686.03;4958674;28;20468;-78
2021/12/09 04:50:38;;;;;;;;;;;;;;;0.56;83.75;99691.41;4959269;27;20317;-79
2021/12/09 04:53:04;;;;;;;;;;;;;;;0.48;83.97;99696.28;4980638;27;20355;-80
2021/12/09 04:55:29;;;;;;;;;;;;;;;0.46;84.64;99705.97;4979360;27;20471;-82
2021/12/09 04:57:54;;;;;;;;;;;;;;;0.43;84.85;99701.78;4981031;27;19949;-79
2021/12/09 05:00:21;;;;;;;;;;;;;;;0.36;84.12;99717.91;4959480;27;19934;-79
2021/12/09 05:05:11;;;;;;;;;;;;;;;0.26;84.52;99708.06;4979283;27;20288;-77
2021/12/09 05:07:37;;;;;;;;;;;;;;;0.28;84.44;99716.63;4980295;27;19904;-78
2021/12/09 05:10:03;;;;;;;;;;;;;;;0.27;84.46;99717.53;4982906;27;20590;-78
2021/12/09 05:12:28;;;;;;;;;;;;;;;0.31;85.29;99719.03;4982621;27;20177;-78
2021/12/09 05:14:53;;;;;;;;;;;;;;;0.44;84.73;99720.88;4983852;27;19980;-78
2021/12/09 05:17:18;;;;;;;;;;;;;;;0.41;85.12;99724.50;4989675;27;20859;-76
2021/12/09 05:19:44;;;;;;;;;;;;;;;0.47;84.71;99736.28;4991898;27;20316;-77
2021/12/09 05:22:09;;;;;;;;;;;;;;;0.36;84.44;99734.34;4997414;27;20099;-77
2021/12/09 05:24:35;;;;;;;;;;;;;;;0.30;84.58;99738.16;5006147;27;20152;-78
2021/12/09 05:27:02;;;;;;;;;;;;;;;0.26;84.77;99741.88;4993365;28;21003;-76
2021/12/09 05:29:33;;;;;;;;;;;;;;;0.25;84.58;99749.78;4987843;28;19912;-76
2021/12/09 05:32:07;;;;;;;;;;;;;;;0.25;84.21;99742.81;4993543;27;19904;-77
2021/12/09 05:34:33;;;;;;;;;;;;;;;0.22;84.67;99756.00;5003684;27;20255;-77
2021/12/09 05:36:59;;;;;;;;;;;;;;;0.32;84.52;99759.75;4991206;28;20513;-77
2021/12/09 05:39:24;;;;;;;;;;;;;;;0.26;84.64;99754.91;4975095;28;20130;-77
2021/12/09 05:41:49;;;;;;;;;;;;;;;0.22;84.42;99763.81;5005712;27;19903;-77
2021/12/09 05:44:14;;;;;;;;;;;;;;;0.13;84.62;99769.59;4993106;27;19934;-77
2021/12/09 05:46:41;;;;;;;;;;;;;;;0.07;84.89;99776.03;5012497;27;19997;-77
2021/12/09 05:49:07;;;;;;;;;;;;;;;0.07;84.91;99778.63;4990308;27;20319;-77
2021/12/09 05:51:32;;;;;;;;;;;;;;;0.08;85.03;99776.84;5002449;27;20158;-78
2021/12/09 05:53:57;;;;;;;;;;;;;;;0.02;85.20;99785.03;4996526;28;20005;-78
2021/12/09 05:56:22;;;;;;;;;;;;;;;0.00;85.18;99785.13;5005052;27;19911;-78
2021/12/09 05:58:48;;;;;;;;;;;;;;;-0.02;85.40;99779.16;5013557;27;20069;-79
2021/12/09 06:01:14;;;;;;;;;;;;;;;-0.07;84.94;99774.25;5014407;27;20528;-78
2021/12/09 06:03:39;;;;;;;;;;;;;;;-0.07;84.70;99771.66;5010596;27;19919;-79
2021/12/09 06:06:04;;;;;;;;;;;;;;;-0.11;85.21;99770.16;5005095;27;20194;-77
2021/12/09 06:08:29;;;;;;;;;;;;;;;-0.11;84.91;99767.56;5012023;27;19994;-78
2021/12/09 06:10:54;;;;;;;;;;;;;;;-0.13;85.02;99769.41;4998477;27;20016;-78
2021/12/09 06:13:22;;;;;;;;;;;;;;;-0.06;84.99;99775.06;5006781;27;20075;-78
2021/12/09 06:15:47;;;;;;;;;;;;;;;-0.11;85.05;99779.72;4994013;27;20118;-78
2021/12/09 06:18:12;;;;;;;;;;;;;;;-0.13;84.87;99772.00;5004591;27;20348;-79
2021/12/09 06:20:38;;;;;;;;;;;;;;;-0.15;84.57;99781.69;5026661;27;19966;-78
2021/12/09 06:23:03;;;;;;;;;;;;;;;-0.24;84.75;99772.66;4995206;27;19908;-77
2021/12/09 06:25:28;;;;;;;;;;;;;;;-0.23;84.76;99783.88;5002993;27;20226;-78
2021/12/09 06:27:55;;;;;;;;;;;;;;;-0.27;84.64;99780.66;4993786;27;19908;-77
2021/12/09 06:30:20;;;;;;;;;;;;;;;-0.24;85.01;99790.00;5008426;27;20028;-77
2021/12/09 06:32:45;;;;;;;;;;;;;;;-0.25;84.88;99790.97;4996767;27;20252;-77
2021/12/09 06:35:11;;;;;;;;;;;;;;;-0.34;85.03;99802.72;5008739;27;20319;-78
2021/12/09 06:37:39;;;;;;;;;;;;;;;-0.39;85.24;99805.59;5007020;27;20389;-78
2021/12/09 06:40:05;;;;;;;;;;;;;;;-0.27;85.17;99803.19;4996865;27;19971;-78
2021/12/09 06:42:31;;;;;;;;;;;;;;;-0.35;85.35;99799.28;5000398;28;20393;-78
2021/12/09 06:44:56;;;;;;;;;;;;;;;-0.31;85.46;99791.31;4978462;28;19924;-77
2021/12/09 06:47:21;;;;;;;;;;;;;;;-0.29;84.89;99792.06;5006647;27;19912;-77
2021/12/09 06:49:46;;;;;;;;;;;;;;;-0.30;84.98;99791.22;5003789;27;20671;-78
2021/12/09 06:52:12;;;;;;;;;;;;;;;-0.31;85.19;99801.69;5004149;27;20342;-78
2021/12/09 06:54:37;;;;;;;;;;;;;;;-0.39;85.43;99800.41;5028095;27;19934;-79
2021/12/09 06:57:02;;;;;;;;;;;;;;;-0.40;85.51;99790.91;4994154;27;20220;-78
2021/12/09 06:59:28;;;;;;;;;;;;;;;-0.44;85.17;99791.19;5010166;27;19938;-80
2021/12/09 07:01:53;;;;;;;;;;;;;;;-0.42;85.30;99786.75;5011004;27;20195;-78
2021/12/09 07:04:18;;;;;;;;;;;;;;;-0.45;85.23;99774.78;5005192;27;19908;-79
2021/12/09 07:06:43;;;;;;;;;;;;;;;-0.46;85.30;99778.28;4998894;28;19955;-78
2021/12/09 07:09:08;;;;;;;;;;;;;;;-0.43;85.25;99785.09;4994736;28;20028;-79
2021/12/09 07:11:34;;;;;;;;;;;;;;;-0.43;84.85;99783.31;4993252;28;19923;-79
2021/12/09 07:13:59;;;;;;;;;;;;;;;-0.49;85.24;99786.28;4991007;28;20444;-77
2021/12/09 07:16:25;;;;;;;;;;;;;;;-0.37;85.35;99787.31;4990167;28;20323;-78
2021/12/09 07:18:50;;;;;;;;;;;;;;;-0.42;85.56;99792.78;4984359;28;19989;-78
2021/12/09 07:21:15;;;;;;;;;;;;;;;-0.44;85.87;99792.03;4984025;28;19937;-78
2021/12/09 07:23:40;;;;;;;;;;;;;;;-0.38;85.52;99796.03;4968731;28;20215;-78
2021/12/09 07:26:06;;;;;;;;;;;;;;;-0.38;85.54;99809.88;4978776;27;20110;-78
2021/12/09 07:28:31;;;;;;;;;;;;;;;-0.32;85.62;99810.41;5009648;27;19918;-78
2021/12/09 07:30:56;;;;;;;;;;;;;;;-0.32;85.35;99800.88;5013305;27;20248;-78
2021/12/09 07:33:22;;;;;;;;;;;;;;;-0.32;85.38;99808.69;5033571;27;20524;-78
2021/12/09 07:35:47;;;;;;;;;;;;;;;-0.29;85.44;99810.25;5008779;28;20237;-78
2021/12/09 07:38:13;;;;;;;;;;;;;;;-0.30;85.38;99818.97;5012325;28;19941;-76
2021/12/09 07:40:38;;;;;;;;;;;;;;;-0.30;85.47;99819.81;4992726;28;19904;-77
2021/12/09 07:43:04;;;;;;;;;;;;;;;-0.25;85.50;99819.56;5015633;28;19908;-76
2021/12/09 07:45:29;;;;;;;;;;;;;;;-0.24;85.26;99829.00;5016784;28;20206;-78
2021/12/09 07:47:54;;;;;;;;;;;;;;;-0.22;85.10;99824.56;5020030;28;20855;-78
2021/12/09 07:50:20;;;;;;;;;;;;;;;-0.15;85.35;99825.06;5012545;27;20417;-77
2021/12/09 07:52:47;;;;;;;;;;;;;;;-0.15;85.41;99827.66;5021145;27;19904;-78
2021/12/09 07:55:13;;;;;;;;;;;;;;;-0.11;85.22;99832.56;4995029;28;19927;-78
2021/12/09 07:57:38;;;;;;;;;;;;;;;-0.02;85.43;99842.41;4997544;27;20585;-78
2021/12/09 08:00:08;;;;;;;;;;;;;;;0.03;85.17;99831.75;4997076;27;20146;-78
2021/12/09 08:02:33;;;;;;;;;;;;;;;0.10;85.39;99842.59;5001884;27;20533;-78
2021/12/09 08:04:58;;;;;;;;;;;;;;;0.17;85.01;99839.56;5013975;27;20416;-78
2021/12/09 08:07:24;;;;;;;;;;;;;;;0.28;85.96;99838.91;5011751;27;20829;-77
2021/12/09 08:09:50;;;;;;;;;;;;;;;0.38;85.53;99839.19;5009522;27;20374;-77
2021/12/09 08:12:15;;;;;;;;;;;;;;;0.39;85.33;99842.63;4997805;27;20369;-77
2021/12/09 08:14:40;;;;;;;;;;;;;;;0.45;85.35;99835.28;5015432;27;20381;-78
2021/12/09 08:17:33;;;;;;;;;;;;;;;0.56;85.00;99836.38;5014793;27;20552;-77
2021/12/09 08:19:59;;;;;;;;;;;;;;;0.66;85.04;99840.94;5018662;27;19918;-78
2021/12/09 08:22:24;;;;;;;;;;;;;;;0.66;84.93;99838.31;5034194;27;20220;-77
2021/12/09 08:24:49;;;;;;;;;;;;;;;0.86;85.12;99841.41;5015802;27;19915;-77
2021/12/09 08:27:15;;;;;;;;;;;;;;;0.96;85.30;99847.72;4997214;27;19911;-77
2021/12/09 08:29:40;;;;;;;;;;;;;;;1.11;85.81;99843.28;4995650;27;19911;-78
2021/12/09 08:32:05;;;;;;;;;;;;;;;1.33;85.53;99841.94;5013123;27;20408;-77
2021/12/09 08:34:30;;;;;;;;;;;;;;;1.45;85.14;99845.50;4995874;27;19927;-77
2021/12/09 08:36:57;;;;;;;;;;;;;;;1.41;85.20;99846.63;5005996;28;20249;-79
2021/12/09 08:39:22;;;;;;;;;;;;;;;1.45;84.99;99853.31;5037139;27;20408;-77
2021/12/09 08:41:47;;;;;;;;;;;;;;;1.52;85.10;99855.44;5016227;27;20744;-77
2021/12/09 08:44:13;;;;;;;;;;;;;;;1.56;84.94;99863.88;5005895;27;20265;-78
2021/12/09 08:46:38;;;;;;;;;;;;;;;1.48;84.70;99860.94;4981268;27;19924;-77
2021/12/09 08:49:03;;;;;;;;;;;;;;;1.55;84.73;99859.59;4988697;28;19923;-77
2021/12/09 08:51:29;;;;;;;;;;;;;;;1.57;84.59;99854.31;4989597;28;19967;-79
2021/12/09 08:53:54;;;;;;;;;;;;;;;1.66;84.20;99856.28;4990305;28;20822;-77
2021/12/09 08:56:20;;;;;;;;;;;;;;;1.73;84.48;99861.94;4955362;28;20324;-77
2021/12/09 08:58:46;;;;;;;;;;;;;;;2.13;83.26;99859.25;4964766;28;19912;-76
2021/12/09 09:01:12;;;;;;;;;;;;;;;2.32;82.33;99862.25;4987240;28;20008;-77
2021/12/09 09:03:37;;;;;;;;;;;;;;;2.59;81.24;99861.28;4972068;28;19912;-77
2021/12/09 09:06:03;;;;;;;;;;;;;;;2.73;79.69;99861.16;4983363;28;20414;-77
2021/12/09 09:08:28;;;;;;;;;;;;;;;2.81;79.18;99875.47;4992398;28;20002;-77
2021/12/09 09:10:53;;;;;;;;;;;;;;;2.96;79.17;99863.06;5002085;28;20072;-77
2021/12/09 09:13:18;;;;;;;;;;;;;;;3.16;78.10;99864.25;4971465;28;20033;-77
2021/12/09 09:15:48;;;;;;;;;;;;;;;3.09;77.75;99869.09;4970229;28;19920;-77
2021/12/09 09:18:13;;;;;;;;;;;;;;;3.20;78.16;99870.94;4969958;28;20314;-77
2021/12/09 09:20:39;;;;;;;;;;;;;;;3.41;77.20;99872.00;4968351;28;20272;-77
2021/12/09 09:23:06;;;;;;;;;;;;;;;3.77;75.99;99875.44;4967111;28;19957;-77
2021/12/09 09:25:31;;;;;;;;;;;;;;;3.92;74.83;99888.31;4976463;28;19954;-77
2021/12/09 09:28:00;;;;;;;;;;;;;;;4.16;73.24;99887.44;4988629;28;20299;-77
2021/12/09 09:30:27;;;;;;;;;;;;;;;4.38;72.47;99887.44;4974384;28;19912;-77
2021/12/09 09:32:52;;;;;;;;;;;;;;;4.66;71.34;99880.06;4972771;28;19916;-77
2021/12/09 09:35:17;;;;;;;;;;;;;;;4.97;70.90;99885.53;4997690;28;20120;-77
2021/12/09 09:37:43;;;;;;;;;;;;;;;4.95;69.84;99879.56;4971613;28;19905;-77
2021/12/09 09:40:09;;;;;;;;;;;;;;;5.22;69.29;99878.31;4985413;28;19915;-77
2021/12/09 09:42:59;;;;;;;;;;;;;;;5.25;69.33;99864.97;4976878;28;20341;-77
2021/12/09 09:45:19;;;;;;;;;;;;;;;5.44;68.29;99873.00;4993790;28;20483;-78
2021/12/09 09:47:45;;;;;;;;;;;;;;;5.29;68.07;99866.38;4994622;28;19908;-78
2021/12/09 09:50:10;;;;;;;;;;;;;;;5.71;67.76;99866.44;4995619;28;20268;-78
2021/12/09 09:52:35;;;;;;;;;;;;;;;5.83;66.12;99870.66;4991235;28;20355;-77
2021/12/09 09:55:02;;;;;;;;;;;;;;;6.39;64.90;99879.19;4986083;28;20024;-77
2021/12/09 09:57:27;;;;;;;;;;;;;;;6.99;64.07;99878.41;5011294;28;20230;-78
2021/12/09 09:59:52;;;;;;;;;;;;;;;7.25;63.03;99875.25;4979535;28;20282;-78
2021/12/09 10:02:18;;;;;;;;;;;;;;;7.33;61.22;99878.03;4971929;28;20398;-78
2021/12/09 10:07:09;;;;;;;;;;;;;;;7.29;61.31;99881.91;4979686;28;20020;-78
2021/12/09 10:09:34;;;;;;;;;;;;;;;7.14;62.03;99868.34;5001984;28;20305;-78
2021/12/09 10:12:00;;;;;;;;;;;;;;;7.18;61.08;99882.88;4993154;28;19994;-77
2021/12/09 10:14:29;;;;;;;;;;;;;;;7.16;61.98;99874.28;4974676;28;20202;-77
2021/12/09 10:17:04;;;;;;;;;;;;;;;7.11;61.41;99858.91;4993072;28;19965;-78
2021/12/09 10:19:29;;;;;;;;;;;;;;;7.34;61.25;99861.28;5011775;28;20215;-77
2021/12/09 10:22:10;;;;;;;;;;;;;;;7.37;61.17;99858.38;4998216;28;20302;-78
2021/12/09 10:24:36;;;;;;;;;;;;;;;7.75;61.09;99856.69;4994562;28;19968;-78
2021/12/09 10:27:01;;;;;;;;;;;;;;;7.19;61.61;99859.06;4984771;28;20024;-79
2021/12/09 10:29:34;;;;;;;;;;;;;;;6.93;61.88;99855.28;4983259;28;20261;-79
2021/12/09 10:32:11;;;;;;;;;;;;;;;6.32;63.55;99857.03;4991072;28;20795;-76
2021/12/09 10:34:40;;;;;;;;;;;;;;;6.00;65.19;99853.53;4994066;28;20223;-78
2021/12/09 10:37:09;;;;;;;;;;;;;;;6.43;64.80;99843.78;4995626;28;20048;-79
2021/12/09 10:39:46;;;;;;;;;;;;;;;6.92;64.18;99845.72;4992052;28;20154;-79
2021/12/09 10:42:22;;;;;;;;;;;;;;;7.14;63.00;99837.59;4991199;28;20707;-78
2021/12/09 10:44:50;;;;;;;;;;;;;;;7.09;62.55;99839.78;4993138;28;20181;-78
2021/12/09 10:47:23;;;;;;;;;;;;;;;6.85;62.88;99848.91;5032185;27;20308;-78
2021/12/09 10:50:04;;;;;;;;;;;;;;;6.84;62.69;99841.16;5019940;27;19904;-78
2021/12/09 10:52:37;;;;;;;;;;;;;;;6.90;62.23;99845.03;5011504;27;19943;-78
2021/12/09 10:55:09;;;;;;;;;;;;;;;6.94;62.02;99836.75;5018386;27;20225;-78
2021/12/09 10:57:34;;;;;;;;;;;;;;;6.33;63.72;99843.75;5034277;27;20377;-79
2021/12/09 11:00:23;;;;;;;;;;;;;;;6.31;64.49;99839.59;5018082;27;19913;-78
2021/12/09 11:03:01;;;;;;;;;;;;;;;5.59;66.75;99835.97;4990293;28;20714;-76
2021/12/09 11:05:27;;;;;;;;;;;;;;;5.42;68.07;99829.47;4996593;28;20208;-78
2021/12/09 11:07:52;;;;;;;;;;;;;;;5.42;68.33;99832.94;4997399;28;20629;-79
2021/12/09 11:10:22;;;;;;;;;;;;;;;5.30;68.07;99837.41;4977241;28;20310;-79
2021/12/09 11:12:48;;;;;;;;;;;;;;;5.19;69.32;99831.34;4975057;28;20135;-77
2021/12/09 11:15:15;;;;;;;;;;;;;;;5.13;69.52;99827.44;5002800;27;19928;-77
2021/12/09 11:17:42;;;;;;;;;;;;;;;5.00;69.62;99827.59;4996365;28;20698;-77
2021/12/09 11:20:07;;;;;;;;;;;;;;;4.92;70.54;99822.97;4988268;28;20846;-77
2021/12/09 11:22:36;;;;;;;;;;;;;;;4.93;70.54;99815.94;4991573;27;19911;-77
2021/12/09 11:25:04;;;;;;;;;;;;;;;4.82;71.48;99806.31;5009876;27;20318;-77
2021/12/09 11:27:30;;;;;;;;;;;;;;;4.90;71.34;99806.53;5013796;27;20291;-77
2021/12/09 11:30:06;;;;;;;;;;;;;;;4.88;70.65;99799.72;5014482;27;20285;-77
2021/12/09 11:32:41;;;;;;;;;;;;;;;4.85;71.36;99800.84;5011349;27;19907;-77
2021/12/09 11:35:23;;;;;;;;;;;;;;;4.74;71.24;99795.63;5010326;27;20978;-77
2021/12/09 11:40:25;;;;;;;;;;;;;;;4.64;71.78;99793.72;4957882;27;19908;-77
2021/12/09 11:42:56;;;;;;;;;;;;;;;4.69;72.03;99797.78;4936144;28;19927;-78
2021/12/09 11:45:24;;;;;;;;;;;;;;;4.62;72.14;99784.31;4931428;27;19929;-76
2021/12/09 11:47:50;;;;;;;;;;;;;;;4.62;72.36;99786.94;4929849;28;20388;-76
2021/12/09 11:50:17;;;;;;;;;;;;;;;4.47;72.56;99791.63;4919787;27;20114;-76
2021/12/09 11:52:43;;;;;;;;;;;;;;;4.51;72.48;99792.19;4920739;28;19904;-76
2021/12/09 11:55:09;;;;;;;;;;;;;;;4.49;72.92;99794.13;4936128;27;20249;-78
2021/12/09 11:57:45;;;;;;;;;;;;;;;4.55;72.79;99789.19;4964980;27;20267;-78
2021/12/09 12:11:57;;;;;;;;;;;;;;;4.56;72.34;99776.97;4959947;27;19988;-76
2021/12/09 12:14:42;;;;;;;;;;;;;;;4.55;71.67;99780.53;4940067;28;20914;-77
2021/12/09 12:17:27;;;;;;;;;;;;;;;4.57;72.18;99775.97;4944268;28;19904;-77
2021/12/09 12:22:54;;;;;;;;;;;;;;;4.64;72.37;99771.94;4959714;27;20230;-76
2021/12/09 12:25:43;;;;;;;;;;;;;;;4.64;72.15;99772.75;4949558;28;19915;-78
2021/12/09 12:29:22;;;;;;;;;;;;;;;4.59;71.69;99771.47;4954774;28;20426;-77
2021/12/09 12:31:59;;;;;;;;;;;;;;;4.57;72.54;99765.50;4953257;28;20404;-79
2021/12/09 12:34:56;;;;;;;;;;;;;;;4.60;71.82;99773.13;4958955;27;19911;-79
2021/12/09 12:40:51;;;;;;;;;;;;;;;4.59;72.79;99764.44;4964113;27;20206;-77
2021/12/09 12:43:53;;;;;;;;;;;;;;;4.62;73.29;99766.78;4973297;27;20047;-78
2021/12/09 12:47:00;;;;;;;;;;;;;;;4.57;72.68;99762.88;4947439;28;20618;-81
2021/12/09 12:49:33;;;;;;;;;;;;;;;4.56;72.47;99766.47;4925598;28;19915;-77
2021/12/09 12:52:07;;;;;;;;;;;;;;;4.53;72.28;99759.69;4912812;28;20532;-78
2021/12/09 12:57:03;;;;;;;;;;;;;;;4.65;72.43;99770.97;4918252;28;20187;-78
2021/12/09 12:59:31;;;;;;;;;;;;;;;4.70;72.12;99763.56;4922644;28;20147;-76
2021/12/09 13:02:01;;;;;;;;;;;;;;;4.65;71.86;99765.72;4933343;28;20001;-76
2021/12/09 13:04:58;;;;;;;;;;;;;;;4.55;71.72;99760.38;4930526;28;19918;-76
2021/12/09 13:10:45;;;;;;;;;;;;;;;4.64;72.14;99761.47;4923693;28;20027;-76
2021/12/09 13:16:16;;;;;;;;;;;;;;;4.70;72.06;99753.09;4917276;28;20312;-76
2021/12/09 13:21:36;;;;;;;;;;;;;;;4.70;72.64;99762.75;4913357;28;19955;-76
2021/12/09 13:24:25;;;;;;;;;;;;;;;4.68;72.77;99765.47;4941097;28;20021;-79
2021/12/09 13:29:50;;;;;;;;;;;;;;;4.75;71.07;99760.56;4919287;28;20071;-79
2021/12/09 13:32:45;;;;;;;;;;;;;;;4.64;72.04;99758.84;4934444;28;20192;-79
2021/12/09 13:35:14;;;;;;;;;;;;;;;4.63;73.14;99758.00;4929510;28;19932;-77
2021/12/09 13:38:31;;;;;;;;;;;;;;;4.63;72.69;99759.78;4907010;28;21031;-77